Time;durP1;ratioP1;P1;durP2;ratioP2;P2;SDS_P1;SDS_P2;PMS_P1;PMS_P2;Temp;Humidity;BMP_temperature;BMP_pressure;BME280_temperature;BME280_humidity;BME280_pressure;Samples;Min_cycle;Max_cycle;Signal;HPM_P1;HPM_P2
2024/01/29 00:00:10;;;;;;;13.98;5.10;;;;;;;0.13;89.23;102591.00;7395915;19;20035;-69
2024/01/29 00:02:38;;;;;;;9.70;4.97;;;;;;;0.17;88.81;102586.88;7397491;19;20021;-68
2024/01/29 00:05:10;;;;;;;12.27;5.50;;;;;;;0.20;89.00;102584.44;7396799;19;20018;-67
2024/01/29 00:07:39;;;;;;;12.73;5.50;;;;;;;0.24;89.05;102586.34;7395987;19;20477;-68
2024/01/29 00:10:09;;;;;;;13.35;6.63;;;;;;;0.27;88.89;102582.25;7397313;19;20028;-68
2024/01/29 00:12:37;;;;;;;11.15;4.90;;;;;;;0.32;89.20;102593.69;7395410;19;20014;-68
2024/01/29 00:15:07;;;;;;;8.90;4.68;;;;;;;0.35;88.70;102587.78;7395433;19;20432;-68
2024/01/29 00:17:35;;;;;;;12.50;5.70;;;;;;;0.40;88.69;102578.56;7396193;19;20078;-68
2024/01/29 00:20:04;;;;;;;11.75;5.07;;;;;;;0.43;88.94;102575.25;7396467;19;20513;-69
2024/01/29 00:22:35;;;;;;;10.52;6.50;;;;;;;0.46;88.70;102584.03;7396408;19;20487;-73
2024/01/29 00:25:03;;;;;;;12.82;6.03;;;;;;;0.48;88.45;102582.44;7397317;19;20023;-68
2024/01/29 00:27:32;;;;;;;12.40;7.18;;;;;;;0.53;88.74;102580.09;7395289;19;20464;-68
2024/01/29 00:30:01;;;;;;;11.18;6.32;;;;;;;0.56;88.76;102575.06;7396333;19;20423;-68
2024/01/29 00:32:29;;;;;;;15.52;5.85;;;;;;;0.59;88.47;102585.53;7396507;19;20087;-68
2024/01/29 00:34:58;;;;;;;10.10;5.80;;;;;;;0.63;88.85;102576.22;7395256;19;20078;-69
2024/01/29 00:37:27;;;;;;;13.50;6.93;;;;;;;0.65;88.75;102577.19;7394613;19;20031;-68
2024/01/29 00:39:58;;;;;;;12.85;6.05;;;;;;;0.67;88.78;102567.84;7394629;19;20086;-68
2024/01/29 00:42:26;;;;;;;10.50;5.90;;;;;;;0.70;88.79;102570.56;7396570;19;20090;-68
2024/01/29 00:44:54;;;;;;;12.82;6.22;;;;;;;0.71;88.97;102567.16;7396165;19;20016;-68
2024/01/29 00:47:23;;;;;;;13.85;5.57;;;;;;;0.74;88.69;102562.13;7395241;19;20086;-68
2024/01/29 00:49:51;;;;;;;10.18;5.07;;;;;;;0.76;88.84;102563.09;7394002;19;20070;-68
2024/01/29 00:52:20;;;;;;;11.75;6.10;;;;;;;0.79;88.80;102559.78;7395885;19;20027;-68
2024/01/29 00:54:48;;;;;;;12.93;5.72;;;;;;;0.80;88.90;102553.81;7394147;19;20074;-68
2024/01/29 00:57:20;;;;;;;13.23;5.22;;;;;;;0.81;89.07;102559.03;7394064;19;20022;-68
2024/01/29 00:59:48;;;;;;;10.73;5.38;;;;;;;0.83;88.87;102561.69;7396128;19;20007;-68
2024/01/29 01:02:17;;;;;;;10.68;4.78;;;;;;;0.83;88.85;102551.34;7393632;19;20013;-68
2024/01/29 01:04:45;;;;;;;11.50;5.40;;;;;;;0.85;89.06;102559.16;7394902;19;20540;-68
2024/01/29 01:07:14;;;;;;;10.75;5.80;;;;;;;0.84;89.19;102558.28;7393510;19;20042;-68
2024/01/29 01:09:42;;;;;;;12.25;5.88;;;;;;;0.84;88.78;102554.84;7394958;19;20069;-68
2024/01/29 01:12:10;;;;;;;12.43;5.60;;;;;;;0.86;88.86;102560.94;7394634;19;20377;-68
2024/01/29 01:14:41;;;;;;;9.85;5.60;;;;;;;0.85;88.92;102566.91;7394125;19;20074;-68
2024/01/29 01:17:10;;;;;;;10.98;6.22;;;;;;;0.85;88.56;102561.75;7395680;19;20062;-68
2024/01/29 01:19:44;;;;;;;9.90;5.40;;;;;;;0.86;88.56;102563.53;7392942;19;20024;-69
2024/01/29 01:22:14;;;;;;;12.95;6.35;;;;;;;0.85;88.38;102560.06;7395333;19;20163;-68
2024/01/29 01:24:45;;;;;;;14.85;8.05;;;;;;;0.86;88.68;102553.19;7394803;19;20013;-68
2024/01/29 01:27:16;;;;;;;13.48;6.18;;;;;;;0.86;88.46;102559.28;7394348;19;20021;-69
2024/01/29 01:29:47;;;;;;;13.70;6.03;;;;;;;0.86;88.66;102558.34;7395222;19;20019;-68
2024/01/29 01:32:16;;;;;;;13.70;8.20;;;;;;;0.87;88.64;102555.84;7394667;19;20424;-68
2024/01/29 01:34:51;;;;;;;15.85;8.00;;;;;;;0.88;88.38;102564.50;7393876;19;20043;-68
2024/01/29 01:37:19;;;;;;;25.42;15.13;;;;;;;0.89;88.62;102563.69;7392634;19;20035;-68
2024/01/29 01:39:52;;;;;;;25.67;15.48;;;;;;;0.90;88.73;102562.88;7394518;19;20074;-68
2024/01/29 01:42:21;;;;;;;25.77;16.13;;;;;;;0.89;88.81;102561.97;7394766;19;20007;-68
2024/01/29 01:44:52;;;;;;;17.95;11.40;;;;;;;0.91;88.76;102562.03;7394046;19;20541;-69
2024/01/29 01:47:20;;;;;;;14.57;9.15;;;;;;;0.91;88.96;102554.28;7392647;19;20073;-67
2024/01/29 01:49:49;;;;;;;13.77;8.60;;;;;;;0.91;88.74;102557.78;7393854;19;20028;-68
2024/01/29 01:52:18;;;;;;;14.20;8.93;;;;;;;0.91;89.23;102556.88;7394216;19;20077;-68
2024/01/29 01:54:47;;;;;;;15.40;8.20;;;;;;;0.91;89.35;102556.88;7392882;19;20014;-68
2024/01/29 01:57:16;;;;;;;13.80;6.70;;;;;;;0.90;89.22;102555.13;7392822;19;20494;-67
2024/01/29 01:59:44;;;;;;;16.13;7.10;;;;;;;0.89;89.26;102551.66;7392054;19;20027;-68
2024/01/29 02:02:16;;;;;;;10.88;6.53;;;;;;;0.88;89.53;102544.69;7391969;19;20074;-68
2024/01/29 02:04:44;;;;;;;14.77;6.35;;;;;;;0.88;89.88;102541.25;7393498;19;20011;-68
2024/01/29 02:07:12;;;;;;;13.15;6.75;;;;;;;0.87;89.86;102542.06;7391507;19;20430;-68
2024/01/29 02:09:41;;;;;;;14.05;6.22;;;;;;;0.83;90.01;102533.25;7393510;19;20475;-68
2024/01/29 02:12:11;;;;;;;18.30;6.70;;;;;;;0.80;90.02;102528.84;7393434;19;20414;-68
2024/01/29 02:14:39;;;;;;;10.68;6.28;;;;;;;0.79;90.12;102528.78;7393933;19;20014;-67
2024/01/29 02:17:08;;;;;;;11.98;6.97;;;;;;;0.76;90.27;102526.06;7392474;19;20073;-68
2024/01/29 02:19:39;;;;;;;12.50;6.50;;;;;;;0.74;90.30;102523.38;7391495;19;20014;-68
2024/01/29 02:22:08;;;;;;;15.05;6.70;;;;;;;0.72;90.13;102525.03;7391586;19;20082;-68
2024/01/29 02:24:39;;;;;;;12.57;6.53;;;;;;;0.70;90.18;102515.44;7397991;19;20082;-68
2024/01/29 02:27:07;;;;;;;14.05;7.47;;;;;;;0.69;90.49;102511.94;7397617;19;20082;-68
2024/01/29 02:29:36;;;;;;;12.95;6.82;;;;;;;0.66;90.68;102504.06;7400248;19;20419;-68
2024/01/29 02:32:05;;;;;;;14.70;7.28;;;;;;;0.64;90.38;102500.50;7400466;19;20015;-68
2024/01/29 02:34:34;;;;;;;17.67;6.95;;;;;;;0.60;90.71;102493.44;7400068;19;20070;-68
2024/01/29 02:37:02;;;;;;;16.67;7.90;;;;;;;0.58;90.49;102493.38;7397941;19;20477;-67
2024/01/29 02:39:30;;;;;;;16.42;6.90;;;;;;;0.54;90.88;102488.84;7399895;19;20428;-68
2024/01/29 02:42:01;;;;;;;12.85;7.20;;;;;;;0.52;90.93;102487.91;7400330;19;20103;-69
2024/01/29 02:44:30;;;;;;;15.73;6.53;;;;;;;0.51;90.93;102487.84;7398057;19;20082;-68
2024/01/29 02:46:58;;;;;;;13.80;6.35;;;;;;;0.47;90.68;102487.69;7399370;19;20074;-68
2024/01/29 02:49:27;;;;;;;14.57;6.28;;;;;;;0.43;90.83;102490.94;7399979;19;20074;-68
2024/01/29 02:51:55;;;;;;;15.85;7.25;;;;;;;0.42;91.07;102481.41;7399493;19;20070;-68
2024/01/29 02:54:23;;;;;;;16.25;6.93;;;;;;;0.38;91.36;102476.91;7399643;19;20035;-68
2024/01/29 02:56:52;;;;;;;17.17;6.47;;;;;;;0.36;91.27;102477.66;7398798;19;20479;-68
2024/01/29 02:59:23;;;;;;;14.80;6.53;;;;;;;0.33;91.39;102499.06;7399714;19;20078;-68
2024/01/29 03:01:51;;;;;;;13.05;6.75;;;;;;;0.30;91.49;102493.72;7399224;19;20406;-68
2024/01/29 03:04:20;;;;;;;17.40;6.95;;;;;;;0.27;91.16;102484.13;7399206;19;20077;-68
2024/01/29 03:06:48;;;;;;;14.05;6.65;;;;;;;0.26;91.63;102491.81;7397836;19;20014;-68
2024/01/29 03:09:17;;;;;;;12.60;6.88;;;;;;;0.23;91.51;102483.91;7397617;19;20086;-69
2024/01/29 03:11:45;;;;;;;13.05;6.78;;;;;;;0.19;91.45;102485.47;7398640;19;20419;-69
2024/01/29 03:14:13;;;;;;;11.55;6.35;;;;;;;0.17;92.02;102481.03;7400636;19;20023;-70
2024/01/29 03:16:45;;;;;;;15.40;7.70;;;;;;;0.15;91.89;102483.53;7400686;19;20019;-69
2024/01/29 03:19:13;;;;;;;15.80;7.53;;;;;;;0.12;91.92;102483.38;7401172;19;20010;-70
2024/01/29 03:21:41;;;;;;;12.55;7.32;;;;;;;0.08;91.97;102477.19;7396332;19;20426;-69
2024/01/29 03:24:10;;;;;;;15.88;8.77;;;;;;;0.07;91.97;102474.53;7398905;19;20019;-69
2024/01/29 03:26:39;;;;;;;18.67;8.30;;;;;;;0.03;92.11;102467.47;7398051;19;20077;-69
2024/01/29 03:29:07;;;;;;;13.88;8.10;;;;;;;0.02;92.33;102470.84;7398649;19;20010;-69
2024/01/29 03:31:35;;;;;;;14.88;7.78;;;;;;;-0.02;92.53;102467.22;7398237;19;20082;-69
2024/01/29 03:34:06;;;;;;;19.15;7.68;;;;;;;-0.05;92.49;102472.22;7398414;19;20083;-69
2024/01/29 03:36:35;;;;;;;16.40;7.75;;;;;;;-0.08;92.75;102472.94;7394485;19;20074;-70
2024/01/29 03:39:03;;;;;;;12.70;6.45;;;;;;;-0.12;92.61;102468.44;7398395;19;20014;-70
2024/01/29 03:41:34;;;;;;;19.08;7.30;;;;;;;-0.16;92.60;102469.13;7398211;19;20074;-70
2024/01/29 03:44:02;;;;;;;16.08;6.82;;;;;;;-0.19;92.82;102466.38;7398522;19;20011;-71
2024/01/29 03:46:31;;;;;;;13.63;7.15;;;;;;;-0.24;92.84;102463.59;7397571;19;20015;-70
2024/01/29 03:48:59;;;;;;;14.77;6.97;;;;;;;-0.27;93.06;102463.41;7396191;19;20439;-70
2024/01/29 03:51:30;;;;;;;13.05;7.53;;;;;;;-0.30;93.24;102468.44;7395962;19;20078;-71
2024/01/29 03:53:58;;;;;;;15.30;6.32;;;;;;;-0.33;93.10;102468.25;7397629;19;20014;-70
2024/01/29 03:56:27;;;;;;;12.52;7.15;;;;;;;-0.36;93.22;102468.13;7395978;19;20018;-70
2024/01/29 03:58:55;;;;;;;15.48;7.70;;;;;;;-0.38;93.49;102469.72;7397935;19;20022;-70
2024/01/29 04:01:30;;;;;;;13.93;8.48;;;;;;;-0.40;93.42;102466.19;7397187;19;20094;-69
2024/01/29 04:03:58;;;;;;;13.77;7.75;;;;;;;-0.43;93.44;102466.00;7395752;19;20015;-70
2024/01/29 04:06:29;;;;;;;13.02;6.85;;;;;;;-0.46;93.67;102471.91;7394586;19;20086;-69
2024/01/29 04:08:58;;;;;;;17.30;7.43;;;;;;;-0.48;93.81;102472.63;7397315;19;20493;-70
2024/01/29 04:11:26;;;;;;;12.60;7.57;;;;;;;-0.53;93.66;102467.22;7395621;19;20014;-70
2024/01/29 04:13:55;;;;;;;18.38;10.00;;;;;;;-0.56;93.78;102465.38;7395561;19;20070;-70
2024/01/29 04:16:24;;;;;;;17.67;9.27;;;;;;;-0.58;94.03;102468.69;7394801;19;20363;-70
2024/01/29 04:18:52;;;;;;;23.60;9.88;;;;;;;-0.61;93.84;102472.00;7396986;19;20036;-70
2024/01/29 04:21:21;;;;;;;15.55;8.18;;;;;;;-0.65;93.91;102470.06;7395016;19;20485;-70
2024/01/29 04:23:52;;;;;;;16.35;8.23;;;;;;;-0.68;94.34;102464.78;7397011;19;20011;-70
2024/01/29 04:26:21;;;;;;;15.38;8.07;;;;;;;-0.70;94.24;102463.78;7397234;19;20025;-70
2024/01/29 04:28:49;;;;;;;17.75;8.82;;;;;;;-0.72;94.36;102462.81;7395112;19;20022;-70
2024/01/29 04:31:18;;;;;;;15.18;8.40;;;;;;;-0.74;94.62;102467.91;7396770;19;20038;-70
2024/01/29 04:33:46;;;;;;;17.27;8.02;;;;;;;-0.77;94.49;102461.69;7396842;19;20010;-69
2024/01/29 04:36:16;;;;;;;16.38;8.23;;;;;;;-0.80;94.39;102451.25;7395535;19;20027;-70
2024/01/29 04:38:45;;;;;;;15.77;8.48;;;;;;;-0.83;94.73;102460.56;7394280;19;20473;-70
2024/01/29 04:41:23;;;;;;;15.43;8.15;;;;;;;-0.87;94.65;102453.47;7396049;19;20364;-70
2024/01/29 04:43:52;;;;;;;14.05;8.10;;;;;;;-0.89;94.75;102462.81;7395112;19;20031;-70
2024/01/29 04:46:20;;;;;;;13.93;7.78;;;;;;;-0.92;94.69;102449.78;7394727;19;20015;-70
2024/01/29 04:48:49;;;;;;;17.55;8.32;;;;;;;-0.94;94.86;102451.38;7394589;19;20031;-70
2024/01/29 04:51:18;;;;;;;14.98;8.10;;;;;;;-0.96;95.12;102453.00;7394145;19;20415;-71
2024/01/29 04:53:46;;;;;;;13.23;7.28;;;;;;;-0.99;95.25;102451.16;7394172;19;20073;-71
2024/01/29 04:56:15;;;;;;;13.13;7.72;;;;;;;-1.01;95.39;102442.44;7394413;19;20490;-70
2024/01/29 04:58:46;;;;;;;13.60;7.85;;;;;;;-1.03;95.36;102446.63;7393843;19;20023;-69
2024/01/29 05:01:14;;;;;;;13.82;7.35;;;;;;;-1.03;95.16;102443.19;7396422;19;20011;-69
2024/01/29 05:03:43;;;;;;;14.98;7.25;;;;;;;-1.05;95.57;102442.19;7395951;19;20022;-69
2024/01/29 05:06:11;;;;;;;18.88;8.77;;;;;;;-1.07;95.66;102434.41;7394368;19;20346;-69
2024/01/29 05:08:40;;;;;;;19.23;8.38;;;;;;;-1.06;95.58;102431.03;7393634;19;20062;-69
2024/01/29 05:11:08;;;;;;;20.42;8.25;;;;;;;-1.07;95.85;102434.41;7395244;19;20077;-70
2024/01/29 05:13:37;;;;;;;24.65;12.32;;;;;;;-1.07;95.91;102436.09;7395289;19;20014;-70
2024/01/29 05:16:10;;;;;;;23.05;12.98;;;;;;;-1.08;95.89;102440.34;7393056;19;20481;-70
2024/01/29 05:18:38;;;;;;;22.70;10.07;;;;;;;-1.09;95.95;102435.13;7393235;19;20082;-70
2024/01/29 05:21:07;;;;;;;16.58;8.95;;;;;;;-1.11;95.93;102431.56;7395277;19;20028;-70
2024/01/29 05:23:36;;;;;;;18.45;9.95;;;;;;;-1.14;95.84;102427.13;7394983;19;20032;-69
2024/01/29 05:26:04;;;;;;;18.20;8.55;;;;;;;-1.17;95.82;102430.44;7394933;19;20011;-70
2024/01/29 05:28:33;;;;;;;25.08;11.48;;;;;;;-1.17;96.00;102435.59;7393412;19;20088;-69
2024/01/29 05:31:11;;;;;;;33.53;17.70;;;;;;;-1.18;96.15;102443.25;7394975;19;20022;-69
2024/01/29 05:33:39;;;;;;;38.45;18.98;;;;;;;-1.19;96.05;102438.88;7395344;19;20027;-68
2024/01/29 05:36:09;;;;;;;29.40;15.35;;;;;;;-1.20;96.35;102438.00;7393644;19;20018;-68
2024/01/29 05:38:37;;;;;;;37.85;18.73;;;;;;;-1.21;96.45;102433.66;7394356;19;20015;-68
2024/01/29 05:41:06;;;;;;;23.65;12.23;;;;;;;-1.19;96.49;102438.88;7395021;19;20512;-68
2024/01/29 05:43:34;;;;;;;25.67;13.02;;;;;;;-1.21;96.55;102433.66;7394982;19;20018;-68
2024/01/29 05:46:03;;;;;;;92.15;32.60;;;;;;;-1.20;96.56;102437.09;7395051;19;20023;-68
2024/01/29 05:48:34;;;;;;;79.63;28.80;;;;;;;-1.19;96.50;102444.03;7393457;19;20082;-69
2024/01/29 05:51:02;;;;;;;81.70;31.00;;;;;;;-1.20;96.62;102442.25;7395310;19;20388;-68
2024/01/29 05:53:31;;;;;;;71.95;26.40;;;;;;;-1.20;96.43;102442.25;7397141;19;20358;-67
2024/01/29 05:56:00;;;;;;;57.97;20.98;;;;;;;-1.21;96.58;102440.50;7393710;19;20027;-66
2024/01/29 05:58:32;;;;;;;53.35;21.05;;;;;;;-1.21;96.65;102440.50;7392808;19;20540;-66
2024/01/29 06:01:00;;;;;;;91.32;40.75;;;;;;;-1.22;96.69;102441.31;7402705;19;20007;-66
2024/01/29 06:03:29;;;;;;;203.68;88.82;;;;;;;-1.23;96.65;102445.56;7399777;19;20027;-67
2024/01/29 06:06:00;;;;;;;106.28;47.92;;;;;;;-1.24;96.67;102435.19;7398822;19;20010;-68
2024/01/29 06:08:28;;;;;;;45.50;19.67;;;;;;;-1.26;96.94;102435.09;7399652;19;20442;-68
2024/01/29 06:10:57;;;;;;;30.48;14.45;;;;;;;-1.27;97.06;102432.44;7402572;19;20018;-67
2024/01/29 06:13:27;;;;;;;32.40;14.80;;;;;;;-1.29;96.82;102431.47;7401033;19;20007;-67
2024/01/29 06:15:56;;;;;;;40.55;18.20;;;;;;;-1.30;96.89;102433.16;7398047;19;20014;-66
2024/01/29 06:18:24;;;;;;;34.35;19.20;;;;;;;-1.32;96.87;102433.06;7398211;19;20015;-66
2024/01/29 06:20:53;;;;;;;32.78;19.27;;;;;;;-1.33;97.08;102426.16;7399914;19;20475;-65
2024/01/29 06:23:25;;;;;;;33.33;19.50;;;;;;;-1.34;97.18;102428.63;7399957;19;20031;-66
2024/01/29 06:25:54;;;;;;;26.00;15.05;;;;;;;-1.36;97.04;102431.13;7400179;19;20021;-65
2024/01/29 06:28:22;;;;;;;41.05;22.85;;;;;;;-1.36;97.19;102425.13;7397761;19;20010;-66
2024/01/29 06:30:51;;;;;;;43.85;25.90;;;;;;;-1.37;97.44;102424.22;7399269;19;20047;-66
2024/01/29 06:33:19;;;;;;;40.97;22.90;;;;;;;-1.39;97.43;102423.25;7401328;19;20476;-65
2024/01/29 06:35:48;;;;;;;38.60;19.65;;;;;;;-1.39;97.42;102433.56;7401069;19;20010;-65
2024/01/29 06:38:16;;;;;;;24.13;14.18;;;;;;;-1.40;97.44;102436.94;7400191;19;20018;-66
2024/01/29 06:40:47;;;;;;;29.90;14.68;;;;;;;-1.40;97.50;102438.59;7400955;19;20003;-66
2024/01/29 06:43:16;;;;;;;24.83;13.40;;;;;;;-1.42;97.64;102440.22;7401096;19;20019;-66
2024/01/29 06:45:44;;;;;;;24.48;13.73;;;;;;;-1.44;97.71;102439.25;7397288;19;20037;-66
2024/01/29 06:48:13;;;;;;;23.63;13.40;;;;;;;-1.46;97.56;102434.00;7397073;19;20365;-65
2024/01/29 06:50:41;;;;;;;23.38;12.75;;;;;;;-1.49;97.58;102439.88;7399244;19;20021;-71
2024/01/29 06:53:10;;;;;;;20.25;10.02;;;;;;;-1.48;97.62;102441.66;7397015;19;20011;-66
2024/01/29 06:55:38;;;;;;;20.75;10.45;;;;;;;-1.49;97.65;102445.03;7396433;19;20014;-66
2024/01/29 06:58:09;;;;;;;21.75;12.07;;;;;;;-1.49;97.73;102445.03;7396805;19;20010;-68
2024/01/29 07:00:38;;;;;;;16.38;10.00;;;;;;;-1.48;97.82;102446.81;7398391;19;20006;-69
2024/01/29 07:03:07;;;;;;;18.83;10.35;;;;;;;-1.49;97.95;102441.59;7396028;19;20003;-70
2024/01/29 07:05:36;;;;;;;20.42;10.30;;;;;;;-1.47;97.74;102442.53;7398954;19;20011;-69
2024/01/29 07:08:05;;;;;;;21.80;10.65;;;;;;;-1.46;97.74;102438.28;7397262;19;20027;-69
2024/01/29 07:10:34;;;;;;;23.00;11.98;;;;;;;-1.45;98.01;102437.47;7398817;19;20024;-67
2024/01/29 07:13:02;;;;;;;21.20;12.77;;;;;;;-1.44;97.88;102442.72;7398850;19;20007;-67
2024/01/29 07:15:33;;;;;;;19.65;12.20;;;;;;;-1.44;98.01;102444.38;7398886;19;20014;-67
2024/01/29 07:18:02;;;;;;;21.55;11.93;;;;;;;-1.43;98.02;102446.16;7396200;19;20034;-66
2024/01/29 07:20:42;;;;;;;24.85;14.43;;;;;;;-1.43;98.03;102441.03;7397865;19;20489;-66
2024/01/29 07:23:11;;;;;;;38.80;20.83;;;;;;;-1.43;98.18;102444.47;7398308;19;20377;-68
2024/01/29 07:25:41;;;;;;;58.50;30.92;;;;;;;-1.40;98.12;102438.59;7398356;19;20419;-67
2024/01/29 07:28:10;;;;;;;77.00;38.78;;;;;;;-1.42;98.14;102450.53;7396694;19;20007;-67
2024/01/29 07:30:41;;;;;;;99.63;44.55;;;;;;;-1.37;98.00;102451.66;7398562;19;20024;-67
2024/01/29 07:33:11;;;;;;;103.20;45.17;;;;;;;-1.36;98.27;102453.44;7395590;19;20367;-67
2024/01/29 07:35:40;;;;;;;44.45;24.35;;;;;;;-1.35;98.06;102447.50;7399982;19;20007;-67
2024/01/29 07:38:08;;;;;;;33.80;16.33;;;;;;;-1.32;97.96;102445.94;7396350;19;20018;-68
2024/01/29 07:40:37;;;;;;;52.53;25.83;;;;;;;-1.28;97.84;102440.97;7396264;19;20020;-67
2024/01/29 07:43:06;;;;;;;27.77;13.90;;;;;;;-1.24;97.60;102441.22;7398291;19;20037;-67
2024/01/29 07:45:34;;;;;;;14.95;9.60;;;;;;;-1.16;97.78;102433.91;7398042;19;20078;-68
2024/01/29 07:48:07;;;;;;;20.63;9.70;;;;;;;-1.09;97.02;102435.13;7396526;19;20019;-68
2024/01/29 07:50:36;;;;;;;16.77;9.20;;;;;;;-0.98;97.19;102432.28;7398028;19;20010;-70
2024/01/29 07:53:04;;;;;;;17.50;9.60;;;;;;;-0.85;97.35;102432.94;7401232;19;20023;-70
2024/01/29 07:55:33;;;;;;;23.58;12.35;;;;;;;-0.72;96.76;102429.31;7397245;19;20003;-68
2024/01/29 07:58:01;;;;;;;17.05;8.93;;;;;;;-0.62;96.34;102434.16;7396044;19;20021;-70
2024/01/29 08:00:30;;;;;;;18.50;9.27;;;;;;;-0.50;96.37;102428.72;7398761;19;20070;-70
2024/01/29 08:03:09;;;;;;;15.52;8.30;;;;;;;-0.39;95.13;102421.50;7397471;19;20019;-68
2024/01/29 08:05:37;;;;;;;13.55;9.35;;;;;;;-0.29;94.90;102416.03;7395870;19;20023;-69
2024/01/29 08:08:07;;;;;;;16.00;9.15;;;;;;;-0.20;94.66;102424.22;7395788;19;20019;-67
2024/01/29 08:10:36;;;;;;;25.85;10.93;;;;;;;-0.08;94.06;102420.47;7394993;19;20014;-66
2024/01/29 08:13:05;;;;;;;18.52;9.48;;;;;;;0.01;94.24;102418.31;7397015;19;20031;-66
2024/01/29 08:15:33;;;;;;;15.82;9.00;;;;;;;0.10;94.66;102417.88;7394906;19;20544;-67
2024/01/29 08:18:02;;;;;;;23.08;11.27;;;;;;;0.18;94.45;102411.41;7395317;19;20031;-67
2024/01/29 08:20:33;;;;;;;24.92;11.93;;;;;;;0.25;94.25;102410.91;7396237;19;20014;-67
2024/01/29 08:23:07;;;;;;;20.02;10.05;;;;;;;0.35;92.87;102406.16;7394724;19;20014;-67
2024/01/29 08:25:36;;;;;;;15.52;8.05;;;;;;;0.45;92.47;102398.91;7396038;19;20406;-66
2024/01/29 08:28:05;;;;;;;17.10;7.68;;;;;;;0.57;91.59;102397.69;7394696;19;20027;-67
2024/01/29 08:30:33;;;;;;;19.52;8.45;;;;;;;0.70;91.94;102405.22;7395707;19;20082;-66
2024/01/29 08:33:02;;;;;;;19.83;8.90;;;;;;;0.80;91.44;102403.94;7394372;19;20074;-68
2024/01/29 08:35:33;;;;;;;15.15;6.82;;;;;;;0.90;91.51;102407.81;7395399;19;20006;-67
2024/01/29 08:38:02;;;;;;;14.23;7.15;;;;;;;1.01;91.77;102409.19;7394563;19;20010;-67
2024/01/29 08:40:30;;;;;;;10.63;6.22;;;;;;;1.10;90.95;102414.75;7396018;19;20065;-67
2024/01/29 08:42:59;;;;;;;13.55;7.07;;;;;;;1.20;90.71;102400.53;7395829;19;20096;-67
2024/01/29 08:45:27;;;;;;;15.15;8.63;;;;;;;1.30;89.11;102391.44;7395618;19;20014;-67
2024/01/29 08:47:56;;;;;;;15.00;7.28;;;;;;;1.43;88.55;102400.63;7394018;19;20022;-67
2024/01/29 08:50:24;;;;;;;14.40;6.25;;;;;;;1.55;87.33;102392.50;7393816;19;20022;-66
2024/01/29 08:52:55;;;;;;;11.75;5.97;;;;;;;1.69;86.13;102390.50;7395941;19;20031;-69
2024/01/29 08:55:24;;;;;;;9.40;5.57;;;;;;;1.82;85.76;102382.41;7395068;19;20010;-68
2024/01/29 08:57:53;;;;;;;9.35;5.40;;;;;;;1.99;84.91;102382.22;7393897;19;20014;-66
2024/01/29 09:00:22;;;;;;;6.97;4.55;;;;;;;2.13;84.94;102369.81;7395347;19;20010;-66
2024/01/29 09:02:51;;;;;;;11.52;6.40;;;;;;;2.31;84.72;102382.59;7395204;19;20011;-67
2024/01/29 09:05:19;;;;;;;9.57;5.10;;;;;;;2.43;83.47;102375.28;7394849;19;20015;-67
2024/01/29 09:07:48;;;;;;;10.60;5.53;;;;;;;2.56;82.45;102381.81;7393588;19;20038;-67
2024/01/29 09:10:20;;;;;;;9.82;4.95;;;;;;;2.68;80.69;102386.56;7395081;19;20372;-67
2024/01/29 09:12:48;;;;;;;13.13;6.80;;;;;;;2.81;82.45;102393.09;7394634;19;20507;-67
2024/01/29 09:15:17;;;;;;;12.15;5.63;;;;;;;2.93;81.53;102398.72;7392887;19;20027;-68
2024/01/29 09:17:45;;;;;;;10.65;5.80;;;;;;;3.05;79.08;102404.34;7393238;19;20032;-68
2024/01/29 09:20:15;;;;;;;10.52;5.18;;;;;;;3.18;79.52;102407.38;7393905;19;20501;-68
2024/01/29 09:22:44;;;;;;;7.53;4.60;;;;;;;3.32;79.86;102408.75;7393029;19;20027;-67
2024/01/29 09:25:12;;;;;;;7.90;4.18;;;;;;;3.44;79.01;102400.53;7395106;19;20022;-65
2024/01/29 09:27:43;;;;;;;6.60;4.20;;;;;;;3.59;79.02;102407.94;7393648;19;20099;-64
2024/01/29 09:30:13;;;;;;;10.73;4.40;;;;;;;3.70;80.16;102404.00;7394531;19;20015;-65
2024/01/29 09:32:47;;;;;;;6.32;3.72;;;;;;;3.84;78.88;102411.34;7393939;19;20473;-66
2024/01/29 09:35:16;;;;;;;9.30;4.35;;;;;;;3.97;77.66;102403.13;7400450;19;20099;-70
2024/01/29 09:37:44;;;;;;;6.88;3.70;;;;;;;4.08;76.08;102395.66;7399859;19;20019;-67
2024/01/29 09:40:14;;;;;;;8.20;4.40;;;;;;;4.16;77.21;102398.53;7401990;19;20074;-68
2024/01/29 09:42:50;;;;;;;6.68;3.60;;;;;;;4.27;74.10;102404.03;7402535;19;20021;-67
2024/01/29 09:45:24;;;;;;;6.03;4.40;;;;;;;4.33;75.34;102397.31;7402090;19;20027;-67
2024/01/29 09:47:54;;;;;;;7.32;4.05;;;;;;;4.39;74.42;102389.72;7399798;19;20018;-67
2024/01/29 09:50:26;;;;;;;10.65;5.28;;;;;;;4.50;74.05;102399.53;7399385;19;20027;-67
2024/01/29 09:52:58;;;;;;;8.40;4.72;;;;;;;4.56;73.98;102402.31;7403010;19;20015;-67
2024/01/29 09:55:29;;;;;;;7.63;4.45;;;;;;;4.63;71.21;102401.69;7401987;19;20032;-68
2024/01/29 09:58:00;;;;;;;9.60;4.65;;;;;;;4.70;72.14;102398.44;7399913;19;20070;-67
2024/01/29 10:00:28;;;;;;;12.32;7.45;;;;;;;4.78;70.77;102403.84;7401707;19;20010;-67
2024/01/29 10:03:01;;;;;;;7.25;4.45;;;;;;;4.86;71.16;102404.06;7400754;19;20078;-67
2024/01/29 10:05:32;;;;;;;7.43;4.80;;;;;;;4.93;69.76;102410.31;7399017;19;20010;-67
2024/01/29 10:08:02;;;;;;;8.38;4.28;;;;;;;5.00;71.08;102401.84;7397989;19;20032;-67
2024/01/29 10:10:30;;;;;;;5.20;3.53;;;;;;;5.06;71.84;102412.44;7400697;19;20018;-68
2024/01/29 10:13:13;;;;;;;7.68;4.00;;;;;;;5.12;64.14;102419.50;7400611;19;20541;-68
2024/01/29 10:15:43;;;;;;;7.40;3.60;;;;;;;5.17;70.48;102410.16;7401152;19;20027;-68
2024/01/29 10:18:15;;;;;;;6.70;3.67;;;;;;;5.22;66.84;102400.75;7398351;19;20027;-67
2024/01/29 10:20:43;;;;;;;5.95;3.63;;;;;;;5.29;68.77;102402.66;7401034;19;20041;-68
2024/01/29 10:23:12;;;;;;;9.02;4.30;;;;;;;5.33;65.54;102404.50;7400627;19;20022;-66
2024/01/29 10:25:42;;;;;;;8.13;4.35;;;;;;;5.38;66.44;102400.31;7400498;19;20011;-66
2024/01/29 10:28:16;;;;;;;7.65;4.22;;;;;;;5.41;63.01;102402.09;7398094;19;20010;-67
2024/01/29 10:30:45;;;;;;;6.20;3.88;;;;;;;5.47;67.82;102403.97;7400064;19;20336;-66
2024/01/29 10:33:13;;;;;;;7.35;3.80;;;;;;;5.50;68.09;102404.94;7400131;19;20062;-67
2024/01/29 10:35:42;;;;;;;6.10;3.83;;;;;;;5.54;67.95;102395.50;7399845;19;20481;-67
2024/01/29 10:38:15;;;;;;;7.93;3.88;;;;;;;5.59;66.13;102393.00;7398185;19;20035;-67
2024/01/29 10:40:45;;;;;;;6.63;3.90;;;;;;;5.62;67.13;102393.94;7398181;19;20010;-66
2024/01/29 10:43:21;;;;;;;5.35;3.42;;;;;;;5.68;66.32;102399.31;7396678;19;20010;-67
2024/01/29 10:45:53;;;;;;;9.10;4.38;;;;;;;5.71;66.43;102404.63;7396413;19;20014;-67
2024/01/29 10:48:24;;;;;;;5.90;4.15;;;;;;;5.76;67.08;102406.44;7397316;19;20014;-67
2024/01/29 10:50:53;;;;;;;7.43;3.90;;;;;;;5.79;67.34;102401.34;7400202;19;20033;-67
2024/01/29 10:53:24;;;;;;;5.50;3.80;;;;;;;5.81;63.78;102399.63;7399244;19;20399;-67
2024/01/29 10:55:54;;;;;;;6.60;3.45;;;;;;;5.86;64.64;102393.69;7401057;19;20014;-70
2024/01/29 10:58:26;;;;;;;5.32;3.47;;;;;;;5.92;64.92;102398.16;7398023;19;20090;-67
2024/01/29 11:00:54;;;;;;;6.50;3.97;;;;;;;5.96;65.31;102389.56;7400470;19;20011;-72
2024/01/29 11:03:26;;;;;;;8.82;4.38;;;;;;;6.00;65.28;102390.56;7399661;19;20011;-68
2024/01/29 11:06:01;;;;;;;6.75;4.13;;;;;;;6.05;63.30;102388.06;7401749;19;20010;-71
2024/01/29 11:08:35;;;;;;;6.55;3.80;;;;;;;6.10;64.61;102391.66;7398950;19;20019;-72
2024/01/29 11:11:05;;;;;;;5.63;3.67;;;;;;;6.14;65.89;102385.66;7399333;19;20006;-71
2024/01/29 11:13:37;;;;;;;8.15;3.55;;;;;;;6.25;65.05;102388.53;7398479;19;20028;-68
2024/01/29 11:16:06;;;;;;;5.22;3.10;;;;;;;6.32;64.96;102388.69;7398527;19;20031;-69
2024/01/29 11:18:35;;;;;;;4.68;3.05;;;;;;;6.41;65.54;102390.63;7395666;19;20018;-69
2024/01/29 11:21:05;;;;;;;8.35;3.50;;;;;;;6.47;65.84;102384.66;7398059;19;20516;-69
2024/01/29 11:23:43;;;;;;;6.53;3.20;;;;;;;6.54;60.32;102381.34;7395790;19;20013;-68
2024/01/29 11:26:17;;;;;;;7.55;3.58;;;;;;;6.61;64.12;102380.63;7399050;19;20066;-68
2024/01/29 11:28:48;;;;;;;6.20;3.88;;;;;;;6.68;62.68;102384.25;7395423;19;20086;-68
2024/01/29 11:31:17;;;;;;;6.75;3.97;;;;;;;6.74;62.77;102375.69;7397166;19;20019;-69